createdAt,value
2023-02-16T00:01:26.604Z,47.70
2023-02-16T00:03:55.806Z,48.57
2023-02-16T00:06:24.390Z,47.67
2023-02-16T00:08:55.988Z,45.92
2023-02-16T00:11:46.705Z,47.42
2023-02-16T00:14:15.854Z,48.20
2023-02-16T00:16:43.844Z,48.85
2023-02-16T00:19:20.853Z,47.65
2023-02-16T00:21:49.755Z,48.67
2023-02-16T00:24:19.365Z,48.70
2023-02-16T00:26:47.560Z,49.97
2023-02-16T00:29:21.691Z,48.75
2023-02-16T00:31:50.412Z,48.65
2023-02-16T00:34:31.990Z,50.00
2023-02-16T00:37:01.946Z,48.40
2023-02-16T00:39:31.683Z,50.35
2023-02-16T00:42:02.502Z,48.65
2023-02-16T00:44:34.259Z,47.20
2023-02-16T00:47:04.988Z,49.70
2023-02-16T00:49:33.090Z,49.35
2023-02-16T00:52:01.092Z,49.88
2023-02-16T00:54:30.977Z,50.58
2023-02-16T00:57:01.249Z,49.22
2023-02-16T00:59:29.328Z,50.78
2023-02-16T01:01:58.322Z,49.85
2023-02-16T01:04:26.668Z,50.35
2023-02-16T01:07:12.341Z,48.83
2023-02-16T01:09:57.821Z,50.72
2023-02-16T01:12:27.215Z,52.45
2023-02-16T01:14:56.892Z,50.13
2023-02-16T01:17:25.817Z,49.33
2023-02-16T01:19:53.813Z,51.60
2023-02-16T01:22:21.802Z,48.45
2023-02-16T01:24:49.988Z,49.67
2023-02-16T01:27:17.917Z,49.47
2023-02-16T01:29:47.250Z,48.10
2023-02-16T01:32:15.325Z,51.90
2023-02-16T01:34:43.284Z,49.72
2023-02-16T01:37:16.200Z,50.55
2023-02-16T01:39:44.186Z,50.10
2023-02-16T01:42:28.923Z,49.58
2023-02-16T01:45:00.718Z,50.33
2023-02-16T01:47:37.921Z,50.30
2023-02-16T01:50:16.741Z,52.67
2023-02-16T01:52:46.218Z,50.42
2023-02-16T01:55:21.801Z,49.15
2023-02-16T01:57:52.318Z,49.17
2023-02-16T02:00:30.396Z,50.20
2023-02-16T02:03:21.561Z,49.25
2023-02-16T02:05:50.252Z,50.37
2023-02-16T02:08:24.926Z,49.55
2023-02-16T02:11:04.101Z,49.75
2023-02-16T02:13:40.762Z,47.50
2023-02-16T02:16:12.296Z,48.00
2023-02-16T02:18:40.551Z,48.03
2023-02-16T02:21:42.648Z,48.20
2023-02-16T02:24:44.890Z,49.10
2023-02-16T02:27:23.493Z,49.47
2023-02-16T02:30:06.417Z,47.57
2023-02-16T02:32:47.185Z,49.23
2023-02-16T02:35:28.091Z,45.50
2023-02-16T02:38:01.025Z,47.88
2023-02-16T02:40:41.080Z,47.03
2023-02-16T02:43:15.304Z,47.45
2023-02-16T02:45:48.165Z,47.67
2023-02-16T02:48:16.350Z,46.03
2023-02-16T02:51:11.360Z,46.42
2023-02-16T02:53:44.622Z,45.92
2023-02-16T02:56:32.272Z,44.42
2023-02-16T02:59:23.751Z,46.50
2023-02-16T03:01:55.665Z,46.08
2023-02-16T03:04:27.822Z,48.08
2023-02-16T03:06:59.840Z,45.17
2023-02-16T03:09:28.490Z,46.65
2023-02-16T03:12:15.822Z,46.85
2023-02-16T03:14:49.189Z,46.58
2023-02-16T03:17:36.803Z,48.33
2023-02-16T03:20:27.441Z,46.83
2023-02-16T03:23:14.383Z,45.25
2023-02-16T03:26:00.854Z,45.92
2023-02-16T03:28:48.967Z,44.83
2023-02-16T03:31:21.530Z,45.75
2023-02-16T03:33:54.619Z,46.03
2023-02-16T03:36:23.272Z,46.33
2023-02-16T03:38:51.920Z,46.42
2023-02-16T03:41:20.029Z,47.43
2023-02-16T03:43:48.058Z,45.67
2023-02-16T03:46:16.151Z,45.10
2023-02-16T03:48:45.673Z,45.88
2023-02-16T03:51:13.664Z,43.42
2023-02-16T03:53:41.618Z,44.60
2023-02-16T03:56:09.613Z,45.17
2023-02-16T03:58:37.642Z,44.67
2023-02-16T04:01:05.963Z,44.53
2023-02-16T04:03:34.262Z,45.00
2023-02-16T04:06:03.648Z,45.80
2023-02-16T04:08:31.642Z,45.53
2023-02-16T04:11:00.395Z,45.95
2023-02-16T04:13:27.526Z,44.67
2023-02-16T04:15:55.518Z,43.47
2023-02-16T04:18:23.575Z,44.00
2023-02-16T04:20:52.386Z,43.92
2023-02-16T04:23:21.685Z,45.33
2023-02-16T04:25:49.608Z,43.13
2023-02-16T04:28:17.544Z,44.95
2023-02-16T04:30:45.573Z,44.25
2023-02-16T04:33:13.643Z,47.93
2023-02-16T04:35:41.614Z,45.00
2023-02-16T04:38:09.603Z,44.97
2023-02-16T04:40:38.965Z,45.07
2023-02-16T04:43:06.927Z,43.13
2023-02-16T04:45:34.836Z,44.90
2023-02-16T04:48:03.341Z,44.80
2023-02-16T04:50:31.672Z,45.50
2023-02-16T04:52:59.675Z,45.60
2023-02-16T04:55:27.850Z,44.25
2023-02-16T04:57:57.402Z,42.45
2023-02-16T05:00:25.780Z,43.90
2023-02-16T05:02:53.790Z,44.92
2023-02-16T05:05:21.740Z,44.05
2023-02-16T05:07:49.703Z,46.20
2023-02-16T05:10:17.757Z,45.13
2023-02-16T05:13:03.208Z,44.70
2023-02-16T05:15:32.596Z,45.38
2023-02-16T05:18:00.594Z,44.67
2023-02-16T05:20:42.592Z,45.38
2023-02-16T05:23:10.641Z,43.95
2023-02-16T05:25:38.618Z,45.00
2023-02-16T05:28:06.817Z,45.70
2023-02-16T05:30:36.200Z,45.95
2023-02-16T05:33:04.184Z,45.80
2023-02-16T05:35:32.198Z,44.28
2023-02-16T05:38:00.115Z,48.10
2023-02-16T05:40:28.147Z,44.70
2023-02-16T05:42:56.163Z,45.85
2023-02-16T05:45:24.163Z,46.92
2023-02-16T05:47:54.310Z,45.28
2023-02-16T05:50:22.338Z,47.20
2023-02-16T05:52:50.225Z,47.95
2023-02-16T05:55:18.322Z,46.63
2023-02-16T05:57:46.444Z,46.25
2023-02-16T06:00:15.637Z,47.05
2023-02-16T06:02:43.694Z,46.50
2023-02-16T06:05:13.031Z,46.40
2023-02-16T06:07:41.495Z,47.78
2023-02-16T06:10:10.376Z,47.80
2023-02-16T06:12:38.472Z,49.20
2023-02-16T06:15:06.734Z,47.63
2023-02-16T06:17:34.739Z,45.95
2023-02-16T06:20:02.767Z,46.88
2023-02-16T06:22:32.331Z,47.00
2023-02-16T06:25:00.275Z,45.15
2023-02-16T06:27:28.771Z,45.75
2023-02-16T06:29:56.985Z,47.22
2023-02-16T06:32:25.014Z,46.47
2023-02-16T06:34:53.053Z,48.57
2023-02-16T06:37:22.251Z,49.03
2023-02-16T06:39:51.676Z,47.95
2023-02-16T06:42:19.685Z,48.70
2023-02-16T06:44:47.966Z,47.03
2023-02-16T06:47:15.971Z,46.63
2023-02-16T06:49:43.997Z,48.15
2023-02-16T06:52:12.127Z,47.80
2023-02-16T06:54:40.059Z,48.73
2023-02-16T06:57:09.377Z,48.70
2023-02-16T06:59:37.365Z,49.03
2023-02-16T07:02:05.382Z,48.63
2023-02-16T07:04:33.390Z,46.92
2023-02-16T07:07:01.419Z,48.08
2023-02-16T07:09:29.770Z,46.15
2023-02-16T07:11:58.376Z,49.22
2023-02-16T07:14:27.818Z,48.85
2023-02-16T07:16:57.425Z,47.72
2023-02-16T07:19:25.522Z,47.30
2023-02-16T07:21:55.209Z,45.55
2023-02-16T07:24:23.213Z,46.60
2023-02-16T07:26:51.202Z,48.43
2023-02-16T07:29:19.828Z,47.37
2023-02-16T07:31:49.378Z,47.65
2023-02-16T07:34:18.168Z,46.17
2023-02-16T07:36:47.145Z,47.50
2023-02-16T07:39:15.115Z,48.40
2023-02-16T07:41:43.168Z,47.33
2023-02-16T07:44:11.235Z,45.07
2023-02-16T07:46:39.216Z,47.27
2023-02-16T07:49:08.516Z,47.17
2023-02-16T07:51:36.456Z,47.45
2023-02-16T07:54:04.502Z,47.08
2023-02-16T07:56:34.905Z,46.28
2023-02-16T07:59:04.318Z,47.80
2023-02-16T08:01:32.962Z,47.77
2023-02-16T08:04:00.912Z,46.78
2023-02-16T08:06:30.301Z,46.63
2023-02-16T08:08:58.431Z,47.63
2023-02-16T08:11:26.852Z,46.27
2023-02-16T08:13:57.504Z,47.33
2023-02-16T08:16:27.560Z,47.33
2023-02-16T08:18:57.795Z,48.30
2023-02-16T08:21:28.746Z,47.17
2023-02-16T08:24:00.041Z,45.10
2023-02-16T08:26:30.034Z,47.03
2023-02-16T08:28:59.113Z,47.42
2023-02-16T08:31:29.891Z,48.28
2023-02-16T08:34:00.520Z,47.53
2023-02-16T08:36:32.388Z,49.40
2023-02-16T08:39:04.080Z,47.17
2023-02-16T08:41:34.289Z,48.55
2023-02-16T08:44:02.839Z,49.58
2023-02-16T08:46:32.392Z,47.92
2023-02-16T08:49:00.980Z,49.47
2023-02-16T08:51:30.919Z,49.25
2023-02-16T08:54:01.027Z,50.50
2023-02-16T08:56:30.233Z,49.10
2023-02-16T08:58:58.219Z,50.63
2023-02-16T09:01:26.739Z,49.53
2023-02-16T09:03:55.517Z,48.42
2023-02-16T09:06:24.278Z,49.80
2023-02-16T09:08:53.643Z,50.65
2023-02-16T09:11:24.235Z,51.30
2023-02-16T09:13:53.276Z,50.08
2023-02-16T09:16:25.170Z,52.20
2023-02-16T09:18:53.734Z,51.38
2023-02-16T09:21:23.368Z,51.07
2023-02-16T09:23:54.133Z,51.20
2023-02-16T09:26:25.523Z,51.08
2023-02-16T09:28:53.974Z,51.92
2023-02-16T09:31:26.274Z,51.35
2023-02-16T09:33:56.261Z,52.05
2023-02-16T09:36:24.934Z,52.15
2023-02-16T09:38:54.126Z,52.00
2023-02-16T09:41:32.918Z,50.35
2023-02-16T09:44:14.500Z,49.85
2023-02-16T09:46:43.091Z,51.53
2023-02-16T09:49:22.287Z,52.20
2023-02-16T09:51:56.754Z,53.05
2023-02-16T09:54:35.236Z,53.92
2023-02-16T09:57:09.319Z,54.67
2023-02-16T09:59:49.529Z,51.93
2023-02-16T10:02:32.225Z,53.13
2023-02-16T10:05:20.230Z,50.83
2023-02-16T10:08:07.663Z,52.53
2023-02-16T10:10:44.012Z,51.70
2023-02-16T10:13:21.815Z,53.08
2023-02-16T10:15:53.606Z,55.80
2023-02-16T10:18:29.330Z,53.33
2023-02-16T10:21:00.882Z,55.40
2023-02-16T10:23:41.752Z,56.47
2023-02-16T10:26:18.450Z,55.38
2023-02-16T10:28:50.223Z,57.10
2023-02-16T10:31:25.233Z,55.00
2023-02-16T10:34:06.852Z,53.35
2023-02-16T10:36:47.922Z,54.63
2023-02-16T10:39:24.622Z,54.03
2023-02-16T10:41:57.975Z,55.20
2023-02-16T10:44:36.095Z,54.58
2023-02-16T10:47:06.429Z,55.30
2023-02-16T10:49:37.237Z,55.13
2023-02-16T10:52:06.531Z,53.22
2023-02-16T10:54:35.164Z,53.15
2023-02-16T10:57:07.797Z,54.05
2023-02-16T10:59:40.746Z,54.97
2023-02-16T11:02:20.001Z,53.25
2023-02-16T11:04:49.565Z,53.17
2023-02-16T11:07:20.125Z,53.75
2023-02-16T11:09:51.104Z,52.22
2023-02-16T11:12:27.384Z,54.55
2023-02-16T11:15:02.415Z,53.28
2023-02-16T11:17:32.433Z,52.63
2023-02-16T11:20:05.555Z,51.90
2023-02-16T11:22:36.921Z,52.03
2023-02-16T11:25:24.469Z,52.38
2023-02-16T11:27:55.381Z,52.28
2023-02-16T11:30:33.991Z,51.05
2023-02-16T11:33:04.563Z,51.50
2023-02-16T11:35:33.969Z,50.78
2023-02-16T11:38:02.037Z,48.63
2023-02-16T11:40:32.691Z,50.80
2023-02-16T11:43:02.766Z,50.60
2023-02-16T11:45:34.673Z,50.90
2023-02-16T11:48:07.264Z,50.80
2023-02-16T11:50:38.519Z,52.30
2023-02-16T11:53:17.175Z,51.88
2023-02-16T11:55:46.874Z,49.45
2023-02-16T11:58:17.500Z,48.28
2023-02-16T12:00:58.411Z,49.20
2023-02-16T12:03:47.246Z,49.85
2023-02-16T12:06:29.572Z,47.60
2023-02-16T12:09:08.376Z,46.38
2023-02-16T12:11:45.473Z,46.30
2023-02-16T12:14:29.235Z,46.83
2023-02-16T12:17:05.734Z,45.33
2023-02-16T12:19:41.790Z,44.83
2023-02-16T12:22:23.792Z,44.33
2023-02-16T12:25:04.238Z,44.20
2023-02-16T12:27:38.407Z,44.08
2023-02-16T12:30:21.494Z,44.33
2023-02-16T12:33:06.277Z,43.35
2023-02-16T12:36:00.845Z,45.28
2023-02-16T12:38:42.729Z,43.05
2023-02-16T12:41:22.242Z,41.95
2023-02-16T12:43:53.553Z,43.08
2023-02-16T12:46:25.973Z,44.60
2023-02-16T12:49:01.140Z,42.85
2023-02-16T12:51:36.574Z,42.72
2023-02-16T12:54:10.572Z,42.15
2023-02-16T12:56:44.238Z,40.08
2023-02-16T12:59:21.520Z,39.83
2023-02-16T13:01:52.634Z,36.53
2023-02-16T13:04:28.766Z,32.95
2023-02-16T13:07:04.387Z,32.50
2023-02-16T13:09:41.794Z,31.75
2023-02-16T13:12:18.936Z,30.13
2023-02-16T13:14:54.339Z,30.55
2023-02-16T13:17:30.242Z,30.88
2023-02-16T13:19:59.637Z,29.60
2023-02-16T13:23:02.431Z,30.67
2023-02-16T13:25:55.371Z,29.45
2023-02-16T13:28:44.514Z,29.40
2023-02-16T13:31:24.758Z,28.42
2023-02-16T13:34:06.306Z,25.40
2023-02-16T13:36:54.773Z,26.55
2023-02-16T13:39:39.946Z,23.73
2023-02-16T13:42:47.144Z,20.47
2023-02-16T13:45:18.160Z,20.57
2023-02-16T13:47:46.390Z,20.30
2023-02-16T13:50:31.076Z,20.00
2023-02-16T13:53:12.831Z,18.95
2023-02-16T13:55:41.341Z,19.35
2023-02-16T13:58:31.348Z,20.17
2023-02-16T14:00:59.978Z,19.52
2023-02-16T14:03:39.721Z,18.83
2023-02-16T14:06:32.494Z,20.00
2023-02-16T14:09:45.612Z,20.73
2023-02-16T14:12:31.335Z,20.55
2023-02-16T14:15:05.325Z,20.70
2023-02-16T14:17:35.224Z,21.15
2023-02-16T14:20:06.662Z,20.73
2023-02-16T14:22:40.742Z,22.10
2023-02-16T14:25:35.536Z,22.25
2023-02-16T14:28:05.653Z,23.27
2023-02-16T14:30:37.050Z,22.38
2023-02-16T14:33:18.160Z,23.35
2023-02-16T14:35:48.232Z,23.05
2023-02-16T14:38:23.101Z,23.88
2023-02-16T14:40:56.336Z,23.10
2023-02-16T14:43:32.284Z,23.30
2023-02-16T14:46:33.074Z,24.80
2023-02-16T14:49:30.154Z,24.30
2023-02-16T14:52:37.280Z,25.17
2023-02-16T14:55:33.021Z,25.63
2023-02-16T14:58:05.586Z,25.30
2023-02-16T15:00:40.662Z,26.13
2023-02-16T15:03:17.992Z,26.77
2023-02-16T15:05:52.415Z,25.30
2023-02-16T15:08:23.473Z,26.13
2023-02-16T15:10:58.443Z,24.20
2023-02-16T15:13:30.565Z,26.30
2023-02-16T15:16:02.245Z,25.30
2023-02-16T15:18:35.122Z,27.20
2023-02-16T15:21:04.046Z,27.30
2023-02-16T15:23:34.388Z,26.40
2023-02-16T15:26:04.844Z,26.70
2023-02-16T15:28:36.025Z,28.27
2023-02-16T15:31:06.793Z,29.45
2023-02-16T15:33:37.735Z,28.90
2023-02-16T15:36:09.033Z,29.48
2023-02-16T15:38:39.632Z,30.02
2023-02-16T15:41:09.632Z,29.52
2023-02-16T15:43:44.821Z,28.23
2023-02-16T15:46:16.994Z,29.73
2023-02-16T15:48:45.967Z,28.80
2023-02-16T15:51:19.174Z,28.48
2023-02-16T15:53:51.374Z,27.63
2023-02-16T15:56:29.520Z,29.37
2023-02-16T15:59:01.574Z,27.43
2023-02-16T16:01:37.361Z,27.77
2023-02-16T16:04:14.579Z,26.23
2023-02-16T16:06:42.864Z,26.20
2023-02-16T16:09:23.012Z,25.58
2023-02-16T16:11:51.991Z,25.87
2023-02-16T16:14:22.155Z,25.10
2023-02-16T16:16:50.849Z,24.40
2023-02-16T16:19:21.091Z,25.15
2023-02-16T16:21:54.411Z,27.48
2023-02-16T16:24:33.976Z,28.00
2023-02-16T16:27:05.536Z,27.55
2023-02-16T16:29:38.411Z,26.80
2023-02-16T16:32:08.200Z,27.85
2023-02-16T16:34:38.972Z,26.52
2023-02-16T16:37:08.432Z,27.52
2023-02-16T16:39:40.420Z,28.13
2023-02-16T16:42:21.228Z,27.70
2023-02-16T16:45:07.645Z,28.75
2023-02-16T16:47:38.807Z,28.92
2023-02-16T16:50:24.134Z,29.50
2023-02-16T16:52:52.848Z,28.67
2023-02-16T16:55:29.627Z,28.13
2023-02-16T16:57:59.237Z,28.15
2023-02-16T17:00:34.990Z,28.60
2023-02-16T17:03:03.893Z,28.05
2023-02-16T17:05:32.022Z,29.27
2023-02-16T17:08:00.128Z,28.70
2023-02-16T17:10:28.199Z,28.25
2023-02-16T17:12:58.083Z,29.42
2023-02-16T17:15:37.272Z,30.27
2023-02-16T17:18:06.739Z,27.98
2023-02-16T17:20:34.709Z,29.50
2023-02-16T17:23:04.891Z,28.00
2023-02-16T17:25:35.093Z,29.30
2023-02-16T17:28:03.943Z,29.00
2023-02-16T17:30:33.866Z,28.02
2023-02-16T17:33:01.889Z,29.55
2023-02-16T17:35:31.113Z,28.35
2023-02-16T17:37:59.160Z,28.33
2023-02-16T17:40:27.483Z,25.08
2023-02-16T17:42:55.842Z,25.70
2023-02-16T17:45:23.900Z,25.58
2023-02-16T17:47:53.667Z,25.45
2023-02-16T17:50:22.127Z,25.40
2023-02-16T17:52:50.193Z,26.02
2023-02-16T17:55:18.327Z,24.60
2023-02-16T17:57:46.386Z,25.10
2023-02-16T18:00:19.108Z,24.10
2023-02-16T18:02:47.757Z,22.80
2023-02-16T18:05:17.346Z,24.35
2023-02-16T18:07:45.408Z,22.60
2023-02-16T18:10:20.644Z,22.30
2023-02-16T18:12:48.582Z,21.43
2023-02-16T18:15:16.733Z,21.55
2023-02-16T18:17:44.684Z,22.00
2023-02-16T18:20:17.924Z,21.80
2023-02-16T18:22:45.938Z,22.37
2023-02-16T18:25:14.190Z,22.60
2023-02-16T18:27:42.268Z,22.37
2023-02-16T18:30:11.588Z,21.80
2023-02-16T18:32:41.826Z,19.90
2023-02-16T18:35:10.741Z,20.50
2023-02-16T18:37:40.474Z,18.50
2023-02-16T18:40:13.335Z,19.17
2023-02-16T18:42:41.348Z,20.05
2023-02-16T18:45:10.123Z,19.13
2023-02-16T18:47:39.112Z,18.90
2023-02-16T18:50:08.202Z,18.77
2023-02-16T18:52:36.273Z,18.63
2023-02-16T18:55:06.144Z,18.00
2023-02-16T18:57:34.085Z,17.77
2023-02-16T19:00:02.096Z,17.48
2023-02-16T19:02:30.228Z,18.58
2023-02-16T19:04:58.229Z,18.50
2023-02-16T19:07:26.127Z,17.40
2023-02-16T19:09:54.064Z,18.33
2023-02-16T19:12:23.616Z,19.08
2023-02-16T19:14:51.623Z,19.38
2023-02-16T19:17:19.592Z,18.00
2023-02-16T19:19:47.613Z,19.25
2023-02-16T19:22:15.619Z,20.70
2023-02-16T19:24:43.583Z,19.50
2023-02-16T19:27:11.538Z,20.02
2023-02-16T19:29:41.729Z,21.60
2023-02-16T19:32:09.715Z,20.42
2023-02-16T19:34:37.705Z,21.60
2023-02-16T19:37:05.865Z,23.13
2023-02-16T19:39:33.800Z,22.97
2023-02-16T19:42:01.713Z,23.27
2023-02-16T19:44:29.740Z,24.63
2023-02-16T19:46:59.047Z,24.60
2023-02-16T19:49:27.278Z,24.63
2023-02-16T19:51:55.641Z,25.92
2023-02-16T19:54:25.177Z,25.85
2023-02-16T19:56:54.132Z,24.80
2023-02-16T19:59:23.190Z,24.10
2023-02-16T20:01:51.290Z,24.33
2023-02-16T20:04:20.707Z,23.02
2023-02-16T20:06:49.703Z,23.48
2023-02-16T20:09:18.669Z,19.88
2023-02-16T20:11:46.689Z,18.80
2023-02-16T20:14:15.015Z,18.65
2023-02-16T20:16:43.502Z,20.20
2023-02-16T20:19:11.760Z,19.73
2023-02-16T20:21:44.117Z,20.58
2023-02-16T20:24:13.038Z,20.92
2023-02-16T20:26:43.440Z,22.60
2023-02-16T20:29:13.355Z,22.77
2023-02-16T20:31:44.078Z,22.38
2023-02-16T20:34:12.162Z,20.00
2023-02-16T20:36:41.571Z,21.27
2023-02-16T20:39:10.725Z,18.10
2023-02-16T20:41:38.725Z,16.88
2023-02-16T20:44:06.937Z,17.75
2023-02-16T20:46:35.008Z,17.25
2023-02-16T20:49:04.084Z,17.83
2023-02-16T20:51:32.837Z,17.70
2023-02-16T20:54:03.537Z,17.60
2023-02-16T20:56:31.668Z,16.98
2023-02-16T20:58:59.772Z,17.80
2023-02-16T21:01:30.744Z,16.30
2023-02-16T21:03:59.832Z,18.27
2023-02-16T21:06:28.687Z,18.42
2023-02-16T21:08:56.824Z,18.90
2023-02-16T21:11:26.556Z,19.50
2023-02-16T21:13:54.608Z,20.00
2023-02-16T21:16:22.873Z,20.20
2023-02-16T21:18:50.960Z,20.52
2023-02-16T21:21:19.349Z,20.17
2023-02-16T21:23:49.872Z,18.48
2023-02-16T21:26:20.263Z,17.70
2023-02-16T21:28:49.916Z,18.58
2023-02-16T21:31:19.817Z,17.45
2023-02-16T21:33:47.968Z,18.50
2023-02-16T21:36:18.110Z,19.23
2023-02-16T21:38:47.048Z,19.10
2023-02-16T21:41:25.115Z,17.52
2023-02-16T21:44:00.778Z,18.35
2023-02-16T21:46:30.269Z,17.90
2023-02-16T21:48:57.569Z,17.00
2023-02-16T21:51:28.990Z,17.92
2023-02-16T21:53:57.838Z,16.52
2023-02-16T21:56:32.028Z,15.75
2023-02-16T21:59:01.443Z,14.73
2023-02-16T22:01:31.342Z,15.60
2023-02-16T22:04:01.170Z,14.80
2023-02-16T22:06:32.151Z,14.85
2023-02-16T22:09:00.226Z,13.18
2023-02-16T22:11:28.515Z,14.52
2023-02-16T22:13:57.207Z,15.43
2023-02-16T22:16:27.902Z,16.00
2023-02-16T22:18:59.547Z,17.75
2023-02-16T22:21:28.244Z,19.83
2023-02-16T22:23:56.802Z,19.42
2023-02-16T22:26:27.480Z,20.88
2023-02-16T22:28:55.543Z,20.52
2023-02-16T22:31:25.153Z,19.83
2023-02-16T22:33:57.994Z,19.33
2023-02-16T22:36:26.376Z,18.55
2023-02-16T22:38:55.309Z,17.67
2023-02-16T22:41:24.249Z,18.85
2023-02-16T22:43:55.011Z,17.85
2023-02-16T22:46:24.074Z,18.23
2023-02-16T22:48:52.566Z,19.15
2023-02-16T22:51:22.602Z,18.33
2023-02-16T22:53:50.640Z,17.48
2023-02-16T22:56:20.908Z,17.15
2023-02-16T22:58:49.217Z,18.02
2023-02-16T23:01:19.339Z,16.67
2023-02-16T23:03:48.459Z,16.70
2023-02-16T23:06:18.466Z,15.57
2023-02-16T23:08:51.990Z,17.20
2023-02-16T23:11:20.010Z,17.15
2023-02-16T23:13:48.049Z,17.13
2023-02-16T23:16:18.599Z,17.17
2023-02-16T23:18:47.644Z,17.65
2023-02-16T23:21:18.196Z,16.67
2023-02-16T23:23:48.700Z,16.58
2023-02-16T23:26:17.644Z,17.10
2023-02-16T23:28:46.228Z,17.65
2023-02-16T23:31:14.363Z,16.05
2023-02-16T23:33:43.071Z,17.00
2023-02-16T23:36:11.279Z,18.23
2023-02-16T23:38:39.604Z,18.17
2023-02-16T23:41:11.894Z,18.00
2023-02-16T23:43:39.953Z,17.70
2023-02-16T23:46:09.155Z,16.80
2023-02-16T23:48:38.185Z,17.23
2023-02-16T23:51:06.626Z,16.65
2023-02-16T23:53:35.204Z,16.15
2023-02-16T23:56:06.730Z,16.90
2023-02-16T23:58:41.113Z,15.70
